createdAt,value
2019-02-20T00:00:30.029Z,43.82
2019-02-20T00:02:57.857Z,43.71
2019-02-20T00:05:25.710Z,44.57
2019-02-20T00:07:53.427Z,43.77
2019-02-20T00:10:26.786Z,43.47
2019-02-20T00:12:56.511Z,43.50
2019-02-20T00:15:24.230Z,43.38
2019-02-20T00:17:51.964Z,44.80
2019-02-20T00:20:19.707Z,45.56
2019-02-20T00:22:47.461Z,44.19
2019-02-20T00:25:15.196Z,43.71
2019-02-20T00:27:42.955Z,44.05
2019-02-20T00:30:10.709Z,44.97
2019-02-20T00:32:38.552Z,43.16
2019-02-20T00:35:06.378Z,44.48
2019-02-20T00:37:34.174Z,43.35
2019-02-20T00:40:02.285Z,43.92
2019-02-20T00:42:30.035Z,44.65
2019-02-20T00:45:24.967Z,46.07
2019-02-20T00:48:10.272Z,43.46
2019-02-20T00:50:38.292Z,44.10
2019-02-20T00:53:13.585Z,43.52
2019-02-20T00:55:41.426Z,43.93
2019-02-20T00:58:09.182Z,43.29
2019-02-20T01:00:36.919Z,43.94
2019-02-20T01:03:04.860Z,44.37
2019-02-20T01:05:39.706Z,45.07
2019-02-20T01:08:07.509Z,43.70
2019-02-20T01:10:35.283Z,45.42
2019-02-20T01:13:03.064Z,44.25
2019-02-20T01:15:30.989Z,43.92
2019-02-20T01:17:58.743Z,43.92
2019-02-20T01:20:26.484Z,43.68
2019-02-20T01:22:59.776Z,43.87
2019-02-20T01:25:26.668Z,44.03
2019-02-20T01:27:54.534Z,44.00
2019-02-20T01:30:22.243Z,43.84
2019-02-20T01:32:50.005Z,46.24
2019-02-20T01:35:17.767Z,43.84
2019-02-20T01:37:45.519Z,43.50
2019-02-20T01:40:13.244Z,44.84
2019-02-20T01:42:50.245Z,44.20
2019-02-20T01:45:20.995Z,44.86
2019-02-20T01:47:48.720Z,44.26
2019-02-20T01:50:25.517Z,45.28
2019-02-20T01:52:53.231Z,44.32
2019-02-20T01:55:20.972Z,43.99
2019-02-20T01:57:48.690Z,46.75
2019-02-20T02:00:16.423Z,47.41
2019-02-20T02:02:44.194Z,45.25
2019-02-20T02:05:15.533Z,43.83
2019-02-20T02:07:41.351Z,44.36
2019-02-20T02:10:09.069Z,44.87
2019-02-20T02:12:36.840Z,44.22
2019-02-20T02:15:20.554Z,44.97
2019-02-20T02:17:41.471Z,45.31
2019-02-20T02:20:09.194Z,45.36
2019-02-20T02:22:36.915Z,44.92
2019-02-20T02:25:04.915Z,43.74
2019-02-20T02:27:32.685Z,45.21
2019-02-20T02:30:00.496Z,44.97
2019-02-20T02:32:28.275Z,44.34
2019-02-20T02:34:56.016Z,45.00
2019-02-20T02:37:23.809Z,44.35
2019-02-20T02:39:51.531Z,45.80
2019-02-20T02:42:19.254Z,45.49
2019-02-20T02:44:47.043Z,43.66
2019-02-20T02:47:14.815Z,44.18
2019-02-20T02:49:42.562Z,44.72
2019-02-20T02:52:10.397Z,45.91
2019-02-20T02:54:48.255Z,44.93
2019-02-20T02:57:16.005Z,47.06
2019-02-20T02:59:43.807Z,43.99
2019-02-20T03:02:11.527Z,46.80
2019-02-20T03:04:39.246Z,47.02
2019-02-20T03:07:06.973Z,46.11
2019-02-20T03:09:34.686Z,46.60
2019-02-20T03:12:02.568Z,46.20
2019-02-20T03:14:30.309Z,45.26
2019-02-20T03:16:58.015Z,46.69
2019-02-20T03:19:25.754Z,44.64
2019-02-20T03:21:53.516Z,47.44
2019-02-20T03:24:21.360Z,47.77
2019-02-20T03:26:49.075Z,44.59
2019-02-20T03:29:17.142Z,45.52
2019-02-20T03:31:52.752Z,45.58
2019-02-20T03:34:19.014Z,46.53
2019-02-20T03:36:46.832Z,45.87
2019-02-20T03:39:14.580Z,45.54
2019-02-20T03:41:42.288Z,46.03
2019-02-20T03:44:12.096Z,46.35
2019-02-20T03:46:39.840Z,44.98
2019-02-20T03:49:07.585Z,44.40
2019-02-20T03:51:35.302Z,45.77
2019-02-20T03:54:03.071Z,46.27
2019-02-20T03:56:30.801Z,45.32
2019-02-20T03:58:58.548Z,44.83
2019-02-20T04:01:26.276Z,45.42
2019-02-20T04:03:54.012Z,47.82
2019-02-20T04:06:21.777Z,44.91
2019-02-20T04:08:49.491Z,47.54
2019-02-20T04:11:36.362Z,44.06
2019-02-20T04:14:07.685Z,47.60
2019-02-20T04:16:35.410Z,44.34
2019-02-20T04:19:03.135Z,44.65
2019-02-20T04:21:30.846Z,46.59
2019-02-20T04:24:02.381Z,47.09
2019-02-20T04:26:29.562Z,44.54
2019-02-20T04:28:57.318Z,46.19
2019-02-20T04:31:25.050Z,46.03
2019-02-20T04:33:52.765Z,46.29
2019-02-20T04:36:20.516Z,45.84
2019-02-20T04:38:48.301Z,44.46
2019-02-20T04:41:16.049Z,44.61
2019-02-20T04:43:53.324Z,43.94
2019-02-20T04:46:19.063Z,45.14
2019-02-20T04:48:46.778Z,45.62
2019-02-20T04:51:14.511Z,46.26
2019-02-20T04:53:42.657Z,44.64
2019-02-20T04:56:10.419Z,45.34
2019-02-20T04:58:38.125Z,46.60
2019-02-20T05:01:05.890Z,45.63
2019-02-20T05:03:33.615Z,44.25
2019-02-20T05:06:01.327Z,44.09
2019-02-20T05:08:29.326Z,45.13
2019-02-20T05:10:57.035Z,47.74
2019-02-20T05:13:24.759Z,44.85
2019-02-20T05:15:52.500Z,44.69
2019-02-20T05:18:20.274Z,44.40
2019-02-20T05:20:48.010Z,45.74
2019-02-20T05:23:55.887Z,46.77
2019-02-20T05:26:04.332Z,45.74
2019-02-20T05:28:32.043Z,44.54
2019-02-20T05:30:59.776Z,47.63
2019-02-20T05:33:27.492Z,44.52
2019-02-20T05:35:55.219Z,44.21
2019-02-20T05:38:22.931Z,44.96
2019-02-20T05:40:50.684Z,45.78
2019-02-20T05:43:18.403Z,47.95
2019-02-20T05:45:46.124Z,44.02
2019-02-20T05:48:13.839Z,45.67
2019-02-20T05:50:41.583Z,44.76
2019-02-20T05:53:09.370Z,45.40
2019-02-20T05:55:37.300Z,44.84
2019-02-20T05:58:05.117Z,46.79
2019-02-20T06:00:40.309Z,46.41
2019-02-20T06:03:08.212Z,45.51
2019-02-20T06:05:37.707Z,45.47
2019-02-20T06:08:05.720Z,45.47
2019-02-20T06:10:33.581Z,44.24
2019-02-20T06:13:01.303Z,47.08
2019-02-20T06:15:29.604Z,44.40
2019-02-20T06:17:57.536Z,44.43
2019-02-20T06:20:25.316Z,45.14
2019-02-20T06:22:56.044Z,44.16
2019-02-20T06:25:23.808Z,44.53
2019-02-20T06:27:51.524Z,44.62
2019-02-20T06:30:19.287Z,46.60
2019-02-20T06:32:46.996Z,44.74
2019-02-20T06:35:14.804Z,44.63
2019-02-20T06:37:43.860Z,44.62
2019-02-20T06:40:12.941Z,46.02
2019-02-20T06:42:40.753Z,44.12
2019-02-20T06:45:08.743Z,44.17
2019-02-20T06:47:36.455Z,44.78
2019-02-20T06:50:04.368Z,44.35
2019-02-20T06:52:32.072Z,44.57
2019-02-20T06:54:59.834Z,43.97
2019-02-20T06:57:27.567Z,43.81
2019-02-20T06:59:55.298Z,44.03
2019-02-20T07:02:23.215Z,44.49
2019-02-20T07:05:09.166Z,44.47
2019-02-20T07:07:49.764Z,43.89
2019-02-20T07:10:35.835Z,44.26
2019-02-20T07:13:19.235Z,45.64
2019-02-20T07:15:53.559Z,44.26
2019-02-20T07:18:37.447Z,44.16
2019-02-20T07:21:09.878Z,44.36
2019-02-20T07:24:00.416Z,44.25
2019-02-20T07:26:41.372Z,44.05
2019-02-20T07:29:34.447Z,45.07
2019-02-20T07:32:02.222Z,43.87
2019-02-20T07:34:29.948Z,43.89
2019-02-20T07:36:57.795Z,45.27
2019-02-20T07:39:25.542Z,44.07
2019-02-20T07:41:53.258Z,44.76
2019-02-20T07:44:20.979Z,44.29
2019-02-20T07:46:48.697Z,43.77
2019-02-20T07:49:16.468Z,43.59
2019-02-20T07:51:44.175Z,43.80
2019-02-20T07:54:11.891Z,44.04
2019-02-20T07:56:39.598Z,43.68
2019-02-20T07:59:07.375Z,45.33
2019-02-20T08:01:38.963Z,44.33
2019-02-20T08:04:10.242Z,44.38
2019-02-20T08:06:37.974Z,43.59
2019-02-20T08:09:05.792Z,45.04
2019-02-20T08:11:33.595Z,43.27
2019-02-20T08:14:01.335Z,43.80
2019-02-20T08:16:29.054Z,43.95
2019-02-20T08:18:56.754Z,43.80
2019-02-20T08:21:24.747Z,43.62
2019-02-20T08:23:52.446Z,43.80
2019-02-20T08:26:20.181Z,44.02
2019-02-20T08:28:47.905Z,44.07
2019-02-20T08:31:15.634Z,43.77
2019-02-20T08:33:43.367Z,43.47
2019-02-20T08:36:11.088Z,43.41
2019-02-20T08:38:38.808Z,43.85
2019-02-20T08:41:06.527Z,43.59
2019-02-20T08:43:43.399Z,44.44
2019-02-20T08:46:11.139Z,44.82
2019-02-20T08:48:38.983Z,45.08
2019-02-20T08:51:06.756Z,43.46
2019-02-20T08:53:34.506Z,43.62
2019-02-20T08:56:02.225Z,43.83
2019-02-20T08:58:29.959Z,44.19
2019-02-20T09:00:57.695Z,47.70
2019-02-20T09:03:25.411Z,44.10
2019-02-20T09:05:53.138Z,43.98
2019-02-20T09:08:20.887Z,44.02
2019-02-20T09:10:48.627Z,43.70
2019-02-20T09:13:16.539Z,45.23
2019-02-20T09:15:44.278Z,43.99
2019-02-20T09:18:12.063Z,44.12
2019-02-20T09:20:39.803Z,44.43
2019-02-20T09:23:07.547Z,44.08
2019-02-20T09:25:45.091Z,44.34
2019-02-20T09:28:12.808Z,44.58
2019-02-20T09:30:40.538Z,46.27
2019-02-20T09:33:08.411Z,43.78
2019-02-20T09:35:36.141Z,43.51
2019-02-20T09:38:04.019Z,43.92
2019-02-20T09:40:31.818Z,44.00
2019-02-20T09:42:59.522Z,44.96
2019-02-20T09:45:27.259Z,43.90
2019-02-20T09:47:55.235Z,43.84
2019-02-20T09:50:22.996Z,46.16
2019-02-20T09:52:52.772Z,44.34
2019-02-20T09:55:20.418Z,44.07
2019-02-20T09:57:48.806Z,43.66
2019-02-20T10:00:16.657Z,43.46
2019-02-20T10:02:54.828Z,43.53
2019-02-20T10:05:20.562Z,43.95
2019-02-20T10:07:48.411Z,44.26
2019-02-20T10:10:16.272Z,44.09
2019-02-20T10:12:44.049Z,47.18
2019-02-20T10:15:12.176Z,44.28
2019-02-20T10:17:40.192Z,45.02
2019-02-20T10:20:08.545Z,43.80
2019-02-20T10:22:36.352Z,44.73
2019-02-20T10:25:04.137Z,44.26
2019-02-20T10:27:31.954Z,44.11
2019-02-20T10:29:59.682Z,43.89
2019-02-20T10:32:27.647Z,47.38
2019-02-20T10:34:55.535Z,44.16
2019-02-20T10:37:23.360Z,46.65
2019-02-20T10:39:51.136Z,43.87
2019-02-20T10:42:32.221Z,45.87
2019-02-20T10:45:00.275Z,45.53
2019-02-20T10:47:28.008Z,43.93
2019-02-20T10:49:55.765Z,44.35
2019-02-20T10:52:23.588Z,44.29
2019-02-20T10:54:57.531Z,45.84
2019-02-20T10:57:21.148Z,44.21
2019-02-20T10:59:48.914Z,44.67
2019-02-20T11:02:16.672Z,44.60
2019-02-20T11:04:44.472Z,44.19
2019-02-20T11:07:12.219Z,44.69
2019-02-20T11:09:39.981Z,44.88
2019-02-20T11:12:07.727Z,46.04
2019-02-20T11:14:35.447Z,45.67
2019-02-20T11:17:10.719Z,45.79
2019-02-20T11:19:38.444Z,44.30
2019-02-20T11:22:06.202Z,44.83
2019-02-20T11:24:33.972Z,44.72
2019-02-20T11:27:01.754Z,46.44
2019-02-20T11:29:29.567Z,45.35
2019-02-20T11:31:57.334Z,44.43
2019-02-20T11:34:25.127Z,44.63
2019-02-20T11:36:52.947Z,44.70
2019-02-20T11:39:20.674Z,48.39
2019-02-20T11:41:48.459Z,44.26
2019-02-20T11:44:20.937Z,45.29
2019-02-20T11:46:45.787Z,45.29
2019-02-20T11:49:13.498Z,45.44
2019-02-20T11:51:41.223Z,46.15
2019-02-20T11:54:14.564Z,46.67
2019-02-20T11:56:43.642Z,44.69
2019-02-20T11:59:11.428Z,44.85
2019-02-20T12:01:39.182Z,44.79
2019-02-20T12:04:07.022Z,44.80
2019-02-20T12:06:35.049Z,44.61
2019-02-20T12:09:04.536Z,44.83
2019-02-20T12:11:32.371Z,44.75
2019-02-20T12:14:00.216Z,45.78
2019-02-20T12:16:27.986Z,44.82
2019-02-20T12:18:55.700Z,44.87
2019-02-20T12:21:23.489Z,44.74
2019-02-20T12:23:51.384Z,44.78
2019-02-20T12:26:19.419Z,44.99
2019-02-20T12:28:47.299Z,44.49
2019-02-20T12:31:25.572Z,44.96
2019-02-20T12:33:53.628Z,44.93
2019-02-20T12:36:21.379Z,45.97
2019-02-20T12:38:49.107Z,45.71
2019-02-20T12:41:16.822Z,45.25
2019-02-20T12:43:44.584Z,48.15
2019-02-20T12:46:12.346Z,44.98
2019-02-20T12:48:40.139Z,45.59
2019-02-20T12:51:08.106Z,47.71
2019-02-20T12:53:36.822Z,47.89
2019-02-20T12:56:10.017Z,45.30
2019-02-20T12:58:34.059Z,45.17
2019-02-20T13:01:01.867Z,45.13
2019-02-20T13:03:29.756Z,45.63
2019-02-20T13:05:57.491Z,46.21
2019-02-20T13:08:25.406Z,45.61
2019-02-20T13:11:00.908Z,46.68
2019-02-20T13:13:28.676Z,45.24
2019-02-20T13:15:56.491Z,45.72
2019-02-20T13:18:24.311Z,48.52
2019-02-20T13:20:52.179Z,45.48
2019-02-20T13:23:20.230Z,45.33
2019-02-20T13:25:48.148Z,45.23
2019-02-20T13:28:15.939Z,45.30
2019-02-20T13:30:43.742Z,46.20
2019-02-20T13:33:11.466Z,46.39
2019-02-20T13:35:39.213Z,45.17
2019-02-20T13:38:06.920Z,45.48
2019-02-20T13:40:34.639Z,45.29
2019-02-20T13:43:02.398Z,45.37
2019-02-20T13:45:30.261Z,45.26
2019-02-20T13:47:58.197Z,46.52
2019-02-20T13:50:36.582Z,45.59
2019-02-20T13:53:25.408Z,46.29
2019-02-20T13:56:03.476Z,46.40
2019-02-20T13:58:31.608Z,46.63
2019-02-20T14:00:59.637Z,45.54
2019-02-20T14:03:27.623Z,45.62
2019-02-20T14:05:55.632Z,45.53
2019-02-20T14:08:23.857Z,45.87
2019-02-20T14:11:09.162Z,45.51
2019-02-20T14:13:37.261Z,47.01
2019-02-20T14:16:05.292Z,45.54
2019-02-20T14:18:33.157Z,45.93
2019-02-20T14:21:01.146Z,45.65
2019-02-20T14:23:35.586Z,48.37
2019-02-20T14:26:04.059Z,46.15
2019-02-20T14:28:37.202Z,45.75
2019-02-20T14:31:07.736Z,45.49
2019-02-20T14:36:23.285Z,45.58
2019-02-20T14:38:51.755Z,45.61
2019-02-20T14:41:22.005Z,45.55
2019-02-20T14:43:54.807Z,45.73
2019-02-20T14:46:41.496Z,48.51
2019-02-20T14:49:42.921Z,45.33
2019-02-20T14:52:18.651Z,46.58
2019-02-20T14:54:56.654Z,45.43
2019-02-20T14:57:28.380Z,46.09
2019-02-20T14:59:56.352Z,46.46
2019-02-20T15:02:37.633Z,45.41
2019-02-20T15:05:05.573Z,45.72
2019-02-20T15:07:33.936Z,45.54
2019-02-20T15:10:02.070Z,45.57
2019-02-20T15:12:30.164Z,45.79
2019-02-20T15:14:58.036Z,45.55
2019-02-20T15:17:25.955Z,45.51
2019-02-20T15:19:55.293Z,46.10
2019-02-20T15:22:23.393Z,46.07
2019-02-20T15:24:51.652Z,46.09
2019-02-20T15:27:28.306Z,45.59
2019-02-20T15:29:49.062Z,45.62
2019-02-20T15:32:16.878Z,45.44
2019-02-20T15:35:10.071Z,45.61
2019-02-20T15:37:37.818Z,45.62
2019-02-20T15:40:05.771Z,46.15
2019-02-20T15:42:33.520Z,46.15
2019-02-20T15:45:01.350Z,45.34
2019-02-20T15:47:29.154Z,46.88
2019-02-20T15:49:56.967Z,45.32
2019-02-20T15:52:24.943Z,45.61
2019-02-20T15:54:53.158Z,45.72
2019-02-20T15:57:20.951Z,45.60
2019-02-20T15:59:48.911Z,45.33
2019-02-20T16:02:16.741Z,45.27
2019-02-20T16:04:57.599Z,45.31
2019-02-20T16:07:25.501Z,45.34
2019-02-20T16:09:55.644Z,45.70
2019-02-20T16:12:23.934Z,45.41
2019-02-20T16:14:52.585Z,45.36
2019-02-20T16:17:28.144Z,45.22
2019-02-20T16:19:58.190Z,45.42
2019-02-20T16:22:26.442Z,45.25
2019-02-20T16:24:54.733Z,45.71
2019-02-20T16:27:22.906Z,45.84
2019-02-20T16:29:51.014Z,45.15
2019-02-20T16:32:19.259Z,45.12
2019-02-20T16:34:47.542Z,44.92
2019-02-20T16:37:15.668Z,44.91
2019-02-20T16:39:43.992Z,44.87
2019-02-20T16:42:12.426Z,45.32
2019-02-20T16:44:42.816Z,45.04
2019-02-20T16:47:11.058Z,44.54
2019-02-20T16:49:38.922Z,44.75
2019-02-20T16:52:08.630Z,44.51
2019-02-20T16:54:42.700Z,44.13
2019-02-20T16:57:10.920Z,44.95
2019-02-20T16:59:38.781Z,44.50
2019-02-20T17:05:29.336Z,44.23
2019-02-20T17:07:57.408Z,44.66
2019-02-20T17:10:26.842Z,44.57
2019-02-20T17:12:59.641Z,44.72
2019-02-20T17:15:32.181Z,44.53
2019-02-20T17:18:01.225Z,44.43
2019-02-20T17:20:31.382Z,44.66
2019-02-20T17:23:00.053Z,44.85
2019-02-20T17:25:28.034Z,44.45
2019-02-20T17:28:05.482Z,44.71
2019-02-20T17:30:27.413Z,44.51
2019-02-20T17:32:55.277Z,45.76
2019-02-20T17:35:23.866Z,44.21
2019-02-20T17:37:52.378Z,44.52
2019-02-20T17:46:04.971Z,43.94
2019-02-20T17:48:32.955Z,44.04
2019-02-20T17:51:00.854Z,45.67
2019-02-20T17:53:29.063Z,43.94
2019-02-20T17:55:56.783Z,44.77
2019-02-20T17:58:24.553Z,44.12
2019-02-20T18:00:52.338Z,44.24
2019-02-20T18:03:20.078Z,43.75
2019-02-20T18:05:47.915Z,44.35
2019-02-20T18:08:23.239Z,43.86
2019-02-20T18:10:50.990Z,43.61
2019-02-20T18:13:19.751Z,43.78
2019-02-20T18:15:47.585Z,44.03
2019-02-20T18:18:15.331Z,44.05
2019-02-20T18:20:43.484Z,43.74
2019-02-20T18:23:11.406Z,43.97
2019-02-20T18:25:39.198Z,44.05
2019-02-20T18:28:06.974Z,43.40
2019-02-20T18:30:34.700Z,43.72
2019-02-20T18:33:02.517Z,43.29
2019-02-20T18:35:30.317Z,44.53
2019-02-20T18:37:58.060Z,45.63
2019-02-20T18:40:25.962Z,43.25
2019-02-20T18:42:53.675Z,43.42
2019-02-20T18:45:21.435Z,43.78
2019-02-20T18:47:57.159Z,44.82
2019-02-20T18:50:24.940Z,43.72
2019-02-20T18:52:52.656Z,43.64
2019-02-20T18:55:20.452Z,45.42
2019-02-20T18:57:48.238Z,45.15
2019-02-20T19:00:15.967Z,43.96
2019-02-20T19:02:43.742Z,43.67
2019-02-20T19:05:11.621Z,43.48
2019-02-20T19:07:39.555Z,43.54
2019-02-20T19:10:09.367Z,43.91
2019-02-20T19:12:50.579Z,43.58
2019-02-20T19:15:40.789Z,44.25
2019-02-20T19:18:21.035Z,43.80
2019-02-20T19:20:54.714Z,43.80
2019-02-20T19:23:30.844Z,43.67
2019-02-20T19:26:22.168Z,43.40
2019-02-20T19:28:51.417Z,43.44
2019-02-20T19:31:38.584Z,43.44
2019-02-20T19:34:12.447Z,43.52
2019-02-20T19:36:46.510Z,43.56
2019-02-20T19:39:39.751Z,43.09
2019-02-20T19:42:29.677Z,43.23
2019-02-20T19:45:15.910Z,43.23
2019-02-20T19:48:11.722Z,43.04
2019-02-20T19:50:51.184Z,43.14
2019-02-20T19:53:30.320Z,43.41
2019-02-20T19:56:21.578Z,43.22
2019-02-20T19:59:07.491Z,43.29
2019-02-20T20:02:27.912Z,43.11
2019-02-20T20:05:16.059Z,43.23
2019-02-20T20:07:57.312Z,43.32
2019-02-20T20:10:41.300Z,43.39
2019-02-20T20:13:22.078Z,43.00
2019-02-20T20:16:07.500Z,43.12
2019-02-20T20:19:00.872Z,43.23
2019-02-20T20:21:37.766Z,43.12
2019-02-20T20:24:28.656Z,43.19
2019-02-20T20:27:03.244Z,43.29
2019-02-20T20:29:36.970Z,42.83
2019-02-20T20:32:24.318Z,42.93
2019-02-20T20:35:11.424Z,43.00
2019-02-20T20:37:46.226Z,43.33
2019-02-20T20:40:36.153Z,42.54
2019-02-20T20:43:10.318Z,42.78
2019-02-20T20:45:44.350Z,42.42
2019-02-20T20:48:16.523Z,42.89
2019-02-20T20:50:51.349Z,42.69
2019-02-20T20:53:24.481Z,42.33
2019-02-20T20:56:00.623Z,42.62
2019-02-20T20:58:47.771Z,42.62
2019-02-20T21:01:33.528Z,42.99
2019-02-20T21:04:20.718Z,42.56
2019-02-20T21:07:09.275Z,42.42
2019-02-20T21:10:14.431Z,42.92
2019-02-20T21:15:29.338Z,42.68
2019-02-20T21:18:10.655Z,42.68
2019-02-20T21:20:50.918Z,42.77
2019-02-20T21:23:45.929Z,42.66
2019-02-20T21:26:20.516Z,42.56
2019-02-20T21:29:28.181Z,42.62
2019-02-20T21:31:55.331Z,42.53
2019-02-20T21:34:36.342Z,43.42
2019-02-20T21:37:22.198Z,42.51
2019-02-20T21:40:08.665Z,42.59
2019-02-20T21:42:58.784Z,42.33
2019-02-20T21:45:41.510Z,43.14
2019-02-20T21:48:34.537Z,42.67
2019-02-20T21:51:14.758Z,42.71
2019-02-20T21:53:48.594Z,42.56
2019-02-20T21:56:27.195Z,42.85
2019-02-20T21:59:14.191Z,43.09
2019-02-20T22:01:55.082Z,42.76
2019-02-20T22:04:35.822Z,42.75
2019-02-20T22:07:25.226Z,45.10
2019-02-20T22:10:02.607Z,42.73
2019-02-20T22:12:50.935Z,42.66
2019-02-20T22:15:25.312Z,42.81
2019-02-20T22:18:00.066Z,42.49
2019-02-20T22:20:31.615Z,43.02
2019-02-20T22:23:02.963Z,42.46
2019-02-20T22:25:33.838Z,42.18
2019-02-20T22:28:13.013Z,42.90
2019-02-20T22:31:00.015Z,43.44
2019-02-20T22:33:53.174Z,42.73
2019-02-20T22:36:43.278Z,42.59
2019-02-20T22:39:39.514Z,45.60
2019-02-20T22:42:16.965Z,42.36
2019-02-20T22:45:30.595Z,43.26
2019-02-20T22:48:18.923Z,42.83
2019-02-20T22:51:04.843Z,42.83
2019-02-20T22:53:50.778Z,42.38
2019-02-20T22:56:30.360Z,42.71
2019-02-20T22:59:04.689Z,43.35
2019-02-20T23:01:50.767Z,42.59
2019-02-20T23:04:27.791Z,43.18
2019-02-20T23:07:00.374Z,42.21
2019-02-20T23:09:39.921Z,42.58
2019-02-20T23:12:27.846Z,42.71
2019-02-20T23:14:57.660Z,43.87
2019-02-20T23:17:27.179Z,42.53
2019-02-20T23:19:56.481Z,42.99
2019-02-20T23:22:24.311Z,41.91
2019-02-20T23:24:52.313Z,42.50
2019-02-20T23:27:20.395Z,42.26
2019-02-20T23:29:48.447Z,42.37
2019-02-20T23:32:16.970Z,45.53
2019-02-20T23:34:49.008Z,42.71
2019-02-20T23:37:19.570Z,41.74
2019-02-20T23:39:47.375Z,42.15
2019-02-20T23:42:15.555Z,43.24
2019-02-20T23:44:43.591Z,43.02
2019-02-20T23:47:11.454Z,42.48
2019-02-20T23:49:39.616Z,42.37
2019-02-20T23:52:07.539Z,43.12
2019-02-20T23:54:35.738Z,41.96
2019-02-20T23:57:03.769Z,42.36
2019-02-20T23:59:32.555Z,42.30
